• Join FlightAware (Why Join?)
  • Login
  • US Flag 
12:29AM EDT


 

Airport Tracker/Info


-or-


 

Live Flight TrackerFlight Track Log ✈ ASQ5539 ✈ 14-Apr-2013 ✈ KVPS - KATL

Flight Track Log - Related Links

Times and Time Zones

All times are in EDT time to prevent confusion due to time zone crossing. See the ASQ5539 flight status page for this flight to view local times or setup timezone preferences in your user account.

Time Position Orientation Groundspeed Altitude Reporting Facility
EDT Latitude Longitude Course Direction KTS MPH feet Rate Location/Type
09:01PM 30.6139 -86.3658 41° Northeast 286 329 6,700  Level Jacksonville Center
09:02PM 30.6739 -86.3053 41° Northeast 280 322 9,100 1,980 Climbing Jacksonville Center
09:03PM 30.7361 -86.2375 43° Northeast 288 331 10,700 1,500 Climbing Jacksonville Center
09:04PM 30.5580 -86.5167 North  Level FlightAware Approximate
09:04PM 30.8172 -86.1750 33° Northeast 319 367 12,200  Level Jacksonville Center
09:05PM 30.6494 -86.5167 North  Level FlightAware Approximate
09:05PM 30.9142 -86.1322 21° North 342 394 13,500  Level Jacksonville Center
09:06PM 31.0156 -86.0922 19° North 362 417 14,800 1,320 Climbing Jacksonville Center
09:07PM 31.1272 -86.0450 20° North 377 434 16,200 1,260 Climbing Jacksonville Center
09:09PM 31.3436 -85.9547 20° North 414 476 18,800 1,200 Climbing Atlanta Center
09:10PM 31.4528 -85.9058 21° North 414 476 20,100 1,260 Climbing Atlanta Center
09:11PM 31.5600 -85.8619 19° North 414 476 21,400 1,200 Climbing Atlanta Center
09:12PM 31.6672 -85.8153 20° North 409 471 22,600 780 Climbing Atlanta Center
09:13PM 31.7764 -85.7661 21° North 409 471 23,000 180 Climbing Atlanta Center
09:14PM 31.9128 -85.7075 20° North 442 509 23,000  Level Atlanta Center
09:15PM 32.0367 -85.6508 21° North 462 532 23,000  Level Atlanta Center
09:16PM 32.1689 -85.5944 20° North 481 554 23,000  Level Atlanta Center
09:17PM 32.2886 -85.5328 24° Northeast 481 554 23,000  Level Atlanta Center
09:18PM 32.4106 -85.4633 26° Northeast 475 547 23,000  Level Atlanta Center
09:19PM 32.5303 -85.3964 25° Northeast 475 547 23,000  Level Atlanta Center
09:20PM 32.6519 -85.3292 25° Northeast 475 547 23,000 -540 Level Atlanta Center
09:21PM 32.7717 -85.2617 25° Northeast 470 541 22,000 -1,020 Descending Atlanta Center
09:22PM 32.8914 -85.1917 26° Northeast 465 535 21,000 -1,320 Descending Atlanta Center
09:23PM 33.0131 -85.1314 23° Northeast 465 535 19,400 -2,700 Descending Atlanta Center
09:24PM 33.1178 -85.0706 26° Northeast 436 502 15,600 -3,720 Descending Atlanta Center
09:25PM 33.2061 -85.0022 33° Northeast 396 456 12,000 -3,300 Descending Atlanta Center
09:26PM 33.2650 -84.9283 46° Northeast 336 387 9,000 -2,040 Descending Atlanta Center
09:27PM 33.3219 -84.8492 49° Northeast 319 367 8,000 -900 Descending Atlanta Center
09:28PM 33.3931 -84.8125 23° Northeast 286 329 7,300 -1,320 Descending Atlanta Center
09:29PM 33.4667 -84.8167 357° North 287 330 5,600 -1,920 Descending Atlanta TRACON
09:30PM 33.5333 -84.8167 360° North 283 326 3,800 -1,380 Descending Atlanta TRACON
09:31PM 33.6000 -84.8000 12° North 243 280 3,000 -480 Descending Atlanta TRACON
09:32PM 33.6167 -84.7500 68° East 179 206 3,000  Level Atlanta TRACON
09:33PM 33.6167 -84.6833 90° East 173 199 3,000  Level Atlanta TRACON
09:34PM 33.6167 -84.6333 90° East 176 203 3,000  Level Atlanta TRACON
09:35PM 33.6167 -84.5833 90° East 175 201 3,000 -300 Level Atlanta TRACON
09:36PM 33.6167 -84.5333 90° East 152 175 2,500 -720 Descending Atlanta TRACON
09:37PM 33.6167 -84.4833 90° East 131 151 1,700 -840 Descending Atlanta TRACON
09:39PM 33.6367 -84.4279 119° Southeast  Level Estimated
09:46PM 33.6367 -84.4279 301° West  Level Estimated